sensor_id;sensor_type;location;lat;lon;timestamp;pressure;altitude;pressure_sealevel;temperature
41940;BMP180;23057;48.554;14.454;2023-07-29T00:01:52;93523.00;;;25.40
41940;BMP180;23057;48.554;14.454;2023-07-29T00:04:24;93525.00;;;25.40
41940;BMP180;23057;48.554;14.454;2023-07-29T00:06:55;93524.00;;;25.50
41940;BMP180;23057;48.554;14.454;2023-07-29T00:09:26;93527.00;;;25.40
41940;BMP180;23057;48.554;14.454;2023-07-29T00:11:57;93524.00;;;25.40
41940;BMP180;23057;48.554;14.454;2023-07-29T00:14:27;93526.00;;;25.40
41940;BMP180;23057;48.554;14.454;2023-07-29T00:16:58;93514.00;;;25.40
41940;BMP180;23057;48.554;14.454;2023-07-29T00:19:29;93507.00;;;25.50
41940;BMP180;23057;48.554;14.454;2023-07-29T00:22:00;93508.00;;;25.40
41940;BMP180;23057;48.554;14.454;2023-07-29T00:24:31;93504.00;;;25.40
41940;BMP180;23057;48.554;14.454;2023-07-29T00:27:01;93498.00;;;25.40
41940;BMP180;23057;48.554;14.454;2023-07-29T00:29:32;93493.00;;;25.40
41940;BMP180;23057;48.554;14.454;2023-07-29T00:32:04;93502.00;;;25.40
41940;BMP180;23057;48.554;14.454;2023-07-29T00:34:35;93503.00;;;25.30
41940;BMP180;23057;48.554;14.454;2023-07-29T00:37:05;93508.00;;;25.30
41940;BMP180;23057;48.554;14.454;2023-07-29T00:39:37;93514.00;;;25.30
41940;BMP180;23057;48.554;14.454;2023-07-29T00:42:09;93515.00;;;25.30
41940;BMP180;23057;48.554;14.454;2023-07-29T00:44:40;93513.00;;;25.20
41940;BMP180;23057;48.554;14.454;2023-07-29T00:47:12;93512.00;;;25.20
41940;BMP180;23057;48.554;14.454;2023-07-29T00:49:46;93509.00;;;25.10
41940;BMP180;23057;48.554;14.454;2023-07-29T00:52:17;93492.00;;;25.00
41940;BMP180;23057;48.554;14.454;2023-07-29T00:54:47;93502.00;;;24.90
41940;BMP180;23057;48.554;14.454;2023-07-29T00:57:20;93505.00;;;24.90
41940;BMP180;23057;48.554;14.454;2023-07-29T00:59:52;93502.00;;;24.80
41940;BMP180;23057;48.554;14.454;2023-07-29T01:02:23;93500.00;;;24.80
41940;BMP180;23057;48.554;14.454;2023-07-29T01:04:56;93504.00;;;24.80
41940;BMP180;23057;48.554;14.454;2023-07-29T01:10:59;93493.00;;;24.70
41940;BMP180;23057;48.554;14.454;2023-07-29T01:13:53;93498.00;;;24.60
41940;BMP180;23057;48.554;14.454;2023-07-29T01:16:39;93497.00;;;24.50
41940;BMP180;23057;48.554;14.454;2023-07-29T01:22:28;93498.00;;;24.30
41940;BMP180;23057;48.554;14.454;2023-07-29T01:25:02;93500.00;;;24.30
41940;BMP180;23057;48.554;14.454;2023-07-29T01:27:34;93492.00;;;24.30
41940;BMP180;23057;48.554;14.454;2023-07-29T01:30:06;93493.00;;;24.30
41940;BMP180;23057;48.554;14.454;2023-07-29T01:32:45;93494.00;;;24.30
41940;BMP180;23057;48.554;14.454;2023-07-29T01:35:50;93489.00;;;24.30
41940;BMP180;23057;48.554;14.454;2023-07-29T01:38:35;93483.00;;;24.20
41940;BMP180;23057;48.554;14.454;2023-07-29T01:41:09;93486.00;;;24.20
41940;BMP180;23057;48.554;14.454;2023-07-29T01:43:41;93484.00;;;24.20
41940;BMP180;23057;48.554;14.454;2023-07-29T01:46:14;93476.00;;;24.20
41940;BMP180;23057;48.554;14.454;2023-07-29T01:48:46;93478.00;;;24.20
41940;BMP180;23057;48.554;14.454;2023-07-29T01:51:16;93476.00;;;24.20
41940;BMP180;23057;48.554;14.454;2023-07-29T01:53:47;93474.00;;;24.20
41940;BMP180;23057;48.554;14.454;2023-07-29T01:56:18;93469.00;;;24.10
41940;BMP180;23057;48.554;14.454;2023-07-29T01:58:49;93473.00;;;24.10
41940;BMP180;23057;48.554;14.454;2023-07-29T02:01:20;93468.00;;;24.00
41940;BMP180;23057;48.554;14.454;2023-07-29T02:03:50;93475.00;;;24.00
41940;BMP180;23057;48.554;14.454;2023-07-29T02:06:25;93475.00;;;24.00
41940;BMP180;23057;48.554;14.454;2023-07-29T02:08:57;93469.00;;;24.00
41940;BMP180;23057;48.554;14.454;2023-07-29T02:11:28;93474.00;;;23.90
41940;BMP180;23057;48.554;14.454;2023-07-29T02:13:59;93468.00;;;23.90
41940;BMP180;23057;48.554;14.454;2023-07-29T02:16:30;93462.00;;;23.90
41940;BMP180;23057;48.554;14.454;2023-07-29T02:19:03;93458.00;;;23.80
41940;BMP180;23057;48.554;14.454;2023-07-29T02:21:33;93457.00;;;23.80
41940;BMP180;23057;48.554;14.454;2023-07-29T02:24:04;93451.00;;;23.70
41940;BMP180;23057;48.554;14.454;2023-07-29T02:26:35;93447.00;;;23.70
41940;BMP180;23057;48.554;14.454;2023-07-29T02:29:06;93454.00;;;23.70
41940;BMP180;23057;48.554;14.454;2023-07-29T02:31:37;93464.00;;;23.70
41940;BMP180;23057;48.554;14.454;2023-07-29T02:34:08;93474.00;;;23.70
41940;BMP180;23057;48.554;14.454;2023-07-29T02:36:39;93477.00;;;23.80
41940;BMP180;23057;48.554;14.454;2023-07-29T02:39:10;93482.00;;;23.80
41940;BMP180;23057;48.554;14.454;2023-07-29T02:41:41;93477.00;;;23.80
41940;BMP180;23057;48.554;14.454;2023-07-29T02:44:11;93474.00;;;23.90
41940;BMP180;23057;48.554;14.454;2023-07-29T02:46:42;93477.00;;;23.90
41940;BMP180;23057;48.554;14.454;2023-07-29T02:49:13;93479.00;;;23.90
41940;BMP180;23057;48.554;14.454;2023-07-29T02:51:44;93477.00;;;23.90
41940;BMP180;23057;48.554;14.454;2023-07-29T02:54:14;93481.00;;;24.00
41940;BMP180;23057;48.554;14.454;2023-07-29T02:56:45;93474.00;;;24.00
41940;BMP180;23057;48.554;14.454;2023-07-29T02:59:16;93475.00;;;23.90
41940;BMP180;23057;48.554;14.454;2023-07-29T03:01:47;93473.00;;;23.90
41940;BMP180;23057;48.554;14.454;2023-07-29T03:04:18;93469.00;;;23.90
41940;BMP180;23057;48.554;14.454;2023-07-29T03:06:49;93465.00;;;24.00
41940;BMP180;23057;48.554;14.454;2023-07-29T03:09:19;93455.00;;;24.00
41940;BMP180;23057;48.554;14.454;2023-07-29T03:11:50;93460.00;;;24.00
41940;BMP180;23057;48.554;14.454;2023-07-29T03:14:23;93469.00;;;24.00
41940;BMP180;23057;48.554;14.454;2023-07-29T03:16:53;93469.00;;;24.00
41940;BMP180;23057;48.554;14.454;2023-07-29T03:19:25;93475.00;;;24.00
41940;BMP180;23057;48.554;14.454;2023-07-29T03:21:55;93470.00;;;24.00
41940;BMP180;23057;48.554;14.454;2023-07-29T03:24:26;93472.00;;;24.00
41940;BMP180;23057;48.554;14.454;2023-07-29T03:26:57;93464.00;;;23.90
41940;BMP180;23057;48.554;14.454;2023-07-29T03:29:28;93469.00;;;23.90
41940;BMP180;23057;48.554;14.454;2023-07-29T03:31:59;93476.00;;;23.90
41940;BMP180;23057;48.554;14.454;2023-07-29T03:34:29;93464.00;;;23.90
41940;BMP180;23057;48.554;14.454;2023-07-29T03:37:01;93471.00;;;23.90
41940;BMP180;23057;48.554;14.454;2023-07-29T03:39:32;93468.00;;;23.90
41940;BMP180;23057;48.554;14.454;2023-07-29T03:42:03;93467.00;;;23.90
41940;BMP180;23057;48.554;14.454;2023-07-29T03:44:34;93469.00;;;23.90
41940;BMP180;23057;48.554;14.454;2023-07-29T03:47:06;93457.00;;;23.90
41940;BMP180;23057;48.554;14.454;2023-07-29T03:49:37;93463.00;;;23.90
41940;BMP180;23057;48.554;14.454;2023-07-29T03:52:08;93469.00;;;23.90
41940;BMP180;23057;48.554;14.454;2023-07-29T03:54:39;93474.00;;;23.80
41940;BMP180;23057;48.554;14.454;2023-07-29T03:57:09;93464.00;;;23.80
41940;BMP180;23057;48.554;14.454;2023-07-29T03:59:40;93473.00;;;23.80
41940;BMP180;23057;48.554;14.454;2023-07-29T04:02:11;93492.00;;;23.80
41940;BMP180;23057;48.554;14.454;2023-07-29T04:04:42;93497.00;;;23.80
41940;BMP180;23057;48.554;14.454;2023-07-29T04:07:14;93490.00;;;23.80
41940;BMP180;23057;48.554;14.454;2023-07-29T04:09:45;93489.00;;;23.80
41940;BMP180;23057;48.554;14.454;2023-07-29T04:12:17;93495.00;;;23.80
41940;BMP180;23057;48.554;14.454;2023-07-29T04:14:49;93492.00;;;23.80
41940;BMP180;23057;48.554;14.454;2023-07-29T04:17:20;93493.00;;;23.80
41940;BMP180;23057;48.554;14.454;2023-07-29T04:19:51;93489.00;;;23.80
41940;BMP180;23057;48.554;14.454;2023-07-29T04:22:22;93498.00;;;23.80
41940;BMP180;23057;48.554;14.454;2023-07-29T04:24:53;93502.00;;;23.80
41940;BMP180;23057;48.554;14.454;2023-07-29T04:27:24;93500.00;;;23.80
41940;BMP180;23057;48.554;14.454;2023-07-29T04:29:55;93504.00;;;23.80
41940;BMP180;23057;48.554;14.454;2023-07-29T04:32:26;93508.00;;;23.80
41940;BMP180;23057;48.554;14.454;2023-07-29T04:34:56;93513.00;;;23.80
41940;BMP180;23057;48.554;14.454;2023-07-29T04:37:27;93506.00;;;23.80
41940;BMP180;23057;48.554;14.454;2023-07-29T04:39:58;93512.00;;;23.90
41940;BMP180;23057;48.554;14.454;2023-07-29T04:42:29;93513.00;;;23.90
41940;BMP180;23057;48.554;14.454;2023-07-29T04:44:59;93514.00;;;24.00
41940;BMP180;23057;48.554;14.454;2023-07-29T04:47:30;93519.00;;;24.00
41940;BMP180;23057;48.554;14.454;2023-07-29T04:50:01;93515.00;;;24.10
41940;BMP180;23057;48.554;14.454;2023-07-29T04:52:32;93520.00;;;24.10
41940;BMP180;23057;48.554;14.454;2023-07-29T04:55:03;93521.00;;;24.20
41940;BMP180;23057;48.554;14.454;2023-07-29T04:57:34;93523.00;;;24.20
41940;BMP180;23057;48.554;14.454;2023-07-29T05:00:06;93522.00;;;24.20
41940;BMP180;23057;48.554;14.454;2023-07-29T05:02:37;93524.00;;;24.20
41940;BMP180;23057;48.554;14.454;2023-07-29T05:05:08;93531.00;;;24.20
41940;BMP180;23057;48.554;14.454;2023-07-29T05:07:39;93528.00;;;24.20
41940;BMP180;23057;48.554;14.454;2023-07-29T05:10:09;93531.00;;;24.20
41940;BMP180;23057;48.554;14.454;2023-07-29T05:12:41;93528.00;;;24.20
41940;BMP180;23057;48.554;14.454;2023-07-29T05:15:12;93532.00;;;24.20
41940;BMP180;23057;48.554;14.454;2023-07-29T05:17:43;93531.00;;;24.20
41940;BMP180;23057;48.554;14.454;2023-07-29T05:20:14;93529.00;;;24.20
41940;BMP180;23057;48.554;14.454;2023-07-29T05:22:45;93520.00;;;24.20
41940;BMP180;23057;48.554;14.454;2023-07-29T05:25:16;93529.00;;;24.30
41940;BMP180;23057;48.554;14.454;2023-07-29T05:27:46;93519.00;;;24.30
41940;BMP180;23057;48.554;14.454;2023-07-29T05:30:17;93517.00;;;24.40
41940;BMP180;23057;48.554;14.454;2023-07-29T05:32:48;93521.00;;;24.40
41940;BMP180;23057;48.554;14.454;2023-07-29T05:35:19;93521.00;;;24.60
41940;BMP180;23057;48.554;14.454;2023-07-29T05:37:50;93505.00;;;24.70
41940;BMP180;23057;48.554;14.454;2023-07-29T05:40:21;93517.00;;;25.10
41940;BMP180;23057;48.554;14.454;2023-07-29T05:42:52;93519.00;;;25.50
41940;BMP180;23057;48.554;14.454;2023-07-29T05:45:23;93523.00;;;25.60
41940;BMP180;23057;48.554;14.454;2023-07-29T05:47:53;93514.00;;;25.70
41940;BMP180;23057;48.554;14.454;2023-07-29T05:50:24;93512.00;;;25.80
41940;BMP180;23057;48.554;14.454;2023-07-29T05:52:55;93510.00;;;25.90
41940;BMP180;23057;48.554;14.454;2023-07-29T05:55:26;93514.00;;;26.00
41940;BMP180;23057;48.554;14.454;2023-07-29T05:57:56;93511.00;;;26.10
41940;BMP180;23057;48.554;14.454;2023-07-29T06:00:28;93518.00;;;26.20
41940;BMP180;23057;48.554;14.454;2023-07-29T06:02:58;93511.00;;;26.40
41940;BMP180;23057;48.554;14.454;2023-07-29T06:05:29;93507.00;;;26.50
41940;BMP180;23057;48.554;14.454;2023-07-29T06:08:00;93516.00;;;26.60
41940;BMP180;23057;48.554;14.454;2023-07-29T06:10:31;93518.00;;;26.70
41940;BMP180;23057;48.554;14.454;2023-07-29T06:13:02;93511.00;;;26.80
41940;BMP180;23057;48.554;14.454;2023-07-29T06:15:32;93514.00;;;26.90
41940;BMP180;23057;48.554;14.454;2023-07-29T06:18:03;93511.00;;;27.20
41940;BMP180;23057;48.554;14.454;2023-07-29T06:20:34;93509.00;;;27.40
41940;BMP180;23057;48.554;14.454;2023-07-29T06:23:05;93514.00;;;27.60
41940;BMP180;23057;48.554;14.454;2023-07-29T06:25:36;93518.00;;;27.80
41940;BMP180;23057;48.554;14.454;2023-07-29T06:28:06;93525.00;;;28.00
41940;BMP180;23057;48.554;14.454;2023-07-29T06:30:37;93530.00;;;28.20
41940;BMP180;23057;48.554;14.454;2023-07-29T06:33:08;93532.00;;;28.50
41940;BMP180;23057;48.554;14.454;2023-07-29T06:35:41;93532.00;;;28.70
41940;BMP180;23057;48.554;14.454;2023-07-29T06:38:12;93525.00;;;28.90
41940;BMP180;23057;48.554;14.454;2023-07-29T06:40:42;93523.00;;;29.10
41940;BMP180;23057;48.554;14.454;2023-07-29T06:43:13;93519.00;;;29.30
41940;BMP180;23057;48.554;14.454;2023-07-29T06:45:44;93513.00;;;29.50
41940;BMP180;23057;48.554;14.454;2023-07-29T06:48:15;93515.00;;;29.40
41940;BMP180;23057;48.554;14.454;2023-07-29T06:50:46;93504.00;;;29.40
41940;BMP180;23057;48.554;14.454;2023-07-29T06:53:17;93503.00;;;29.40
41940;BMP180;23057;48.554;14.454;2023-07-29T06:55:47;93505.00;;;29.50
41940;BMP180;23057;48.554;14.454;2023-07-29T06:58:19;93507.00;;;29.60
41940;BMP180;23057;48.554;14.454;2023-07-29T07:00:50;93509.00;;;29.80
41940;BMP180;23057;48.554;14.454;2023-07-29T07:03:20;93501.00;;;30.00
41940;BMP180;23057;48.554;14.454;2023-07-29T07:05:51;93497.00;;;30.10
41940;BMP180;23057;48.554;14.454;2023-07-29T07:08:22;93495.00;;;30.20
41940;BMP180;23057;48.554;14.454;2023-07-29T07:10:53;93482.00;;;30.40
41940;BMP180;23057;48.554;14.454;2023-07-29T07:13:23;93486.00;;;30.60
41940;BMP180;23057;48.554;14.454;2023-07-29T07:15:55;93486.00;;;30.80
41940;BMP180;23057;48.554;14.454;2023-07-29T07:18:27;93486.00;;;30.80
41940;BMP180;23057;48.554;14.454;2023-07-29T07:20:58;93492.00;;;30.90
41940;BMP180;23057;48.554;14.454;2023-07-29T07:23:28;93486.00;;;31.00
41940;BMP180;23057;48.554;14.454;2023-07-29T07:25:59;93488.00;;;31.10
41940;BMP180;23057;48.554;14.454;2023-07-29T07:28:30;93492.00;;;31.20
41940;BMP180;23057;48.554;14.454;2023-07-29T07:31:01;93488.00;;;31.40
41940;BMP180;23057;48.554;14.454;2023-07-29T07:33:32;93492.00;;;31.40
41940;BMP180;23057;48.554;14.454;2023-07-29T07:36:03;93487.00;;;31.40
41940;BMP180;23057;48.554;14.454;2023-07-29T07:38:34;93485.00;;;31.30
41940;BMP180;23057;48.554;14.454;2023-07-29T07:41:05;93482.00;;;31.30
41940;BMP180;23057;48.554;14.454;2023-07-29T07:43:35;93472.00;;;31.30
41940;BMP180;23057;48.554;14.454;2023-07-29T07:46:06;93469.00;;;31.30
41940;BMP180;23057;48.554;14.454;2023-07-29T07:48:38;93472.00;;;31.40
41940;BMP180;23057;48.554;14.454;2023-07-29T07:51:13;93459.00;;;31.60
41940;BMP180;23057;48.554;14.454;2023-07-29T07:53:44;93468.00;;;31.70
41940;BMP180;23057;48.554;14.454;2023-07-29T07:56:14;93476.00;;;31.70
41940;BMP180;23057;48.554;14.454;2023-07-29T07:58:45;93474.00;;;31.70
41940;BMP180;23057;48.554;14.454;2023-07-29T08:01:16;93476.00;;;31.60
41940;BMP180;23057;48.554;14.454;2023-07-29T08:03:47;93481.00;;;31.50
41940;BMP180;23057;48.554;14.454;2023-07-29T08:06:18;93477.00;;;31.40
41940;BMP180;23057;48.554;14.454;2023-07-29T08:08:48;93484.00;;;31.30
41940;BMP180;23057;48.554;14.454;2023-07-29T08:11:19;93488.00;;;31.20
41940;BMP180;23057;48.554;14.454;2023-07-29T08:13:50;93495.00;;;31.20
41940;BMP180;23057;48.554;14.454;2023-07-29T08:16:21;93482.00;;;31.10
41940;BMP180;23057;48.554;14.454;2023-07-29T08:18:52;93487.00;;;30.90
41940;BMP180;23057;48.554;14.454;2023-07-29T08:21:22;93474.00;;;30.90
41940;BMP180;23057;48.554;14.454;2023-07-29T08:23:53;93478.00;;;31.10
41940;BMP180;23057;48.554;14.454;2023-07-29T08:26:24;93468.00;;;31.30
41940;BMP180;23057;48.554;14.454;2023-07-29T08:28:55;93472.00;;;31.40
41940;BMP180;23057;48.554;14.454;2023-07-29T08:31:26;93465.00;;;31.30
41940;BMP180;23057;48.554;14.454;2023-07-29T08:33:56;93471.00;;;31.20
41940;BMP180;23057;48.554;14.454;2023-07-29T08:36:27;93470.00;;;31.20
41940;BMP180;23057;48.554;14.454;2023-07-29T08:38:58;93472.00;;;31.30
41940;BMP180;23057;48.554;14.454;2023-07-29T08:41:43;93478.00;;;31.50
41940;BMP180;23057;48.554;14.454;2023-07-29T08:44:26;93477.00;;;31.50
41940;BMP180;23057;48.554;14.454;2023-07-29T08:47:01;93472.00;;;31.40
41940;BMP180;23057;48.554;14.454;2023-07-29T08:49:32;93482.00;;;31.50
41940;BMP180;23057;48.554;14.454;2023-07-29T08:52:05;93483.00;;;31.50
41940;BMP180;23057;48.554;14.454;2023-07-29T08:54:38;93487.00;;;31.50
41940;BMP180;23057;48.554;14.454;2023-07-29T08:57:10;93484.00;;;31.30
41940;BMP180;23057;48.554;14.454;2023-07-29T08:59:41;93488.00;;;31.20
41940;BMP180;23057;48.554;14.454;2023-07-29T09:02:12;93486.00;;;31.10
41940;BMP180;23057;48.554;14.454;2023-07-29T09:04:43;93480.00;;;30.90
41940;BMP180;23057;48.554;14.454;2023-07-29T09:07:14;93480.00;;;30.80
41940;BMP180;23057;48.554;14.454;2023-07-29T09:09:46;93478.00;;;30.80
41940;BMP180;23057;48.554;14.454;2023-07-29T09:12:17;93490.00;;;30.70
41940;BMP180;23057;48.554;14.454;2023-07-29T09:14:52;93480.00;;;30.60
41940;BMP180;23057;48.554;14.454;2023-07-29T09:17:23;93489.00;;;30.50
41940;BMP180;23057;48.554;14.454;2023-07-29T09:19:54;93489.00;;;30.50
41940;BMP180;23057;48.554;14.454;2023-07-29T09:22:27;93488.00;;;30.40
41940;BMP180;23057;48.554;14.454;2023-07-29T09:24:58;93491.00;;;30.40
41940;BMP180;23057;48.554;14.454;2023-07-29T09:27:29;93499.00;;;30.30
41940;BMP180;23057;48.554;14.454;2023-07-29T09:30:02;93500.00;;;30.30
41940;BMP180;23057;48.554;14.454;2023-07-29T09:32:33;93497.00;;;30.30
41940;BMP180;23057;48.554;14.454;2023-07-29T09:35:11;93506.00;;;30.30
41940;BMP180;23057;48.554;14.454;2023-07-29T09:37:43;93500.00;;;30.40
41940;BMP180;23057;48.554;14.454;2023-07-29T09:40:15;93502.00;;;30.30
41940;BMP180;23057;48.554;14.454;2023-07-29T09:42:51;93500.00;;;30.40
41940;BMP180;23057;48.554;14.454;2023-07-29T09:45:26;93497.00;;;30.40
41940;BMP180;23057;48.554;14.454;2023-07-29T09:47:58;93498.00;;;30.30
41940;BMP180;23057;48.554;14.454;2023-07-29T09:50:31;93501.00;;;30.30
41940;BMP180;23057;48.554;14.454;2023-07-29T09:53:02;93506.00;;;30.20
41940;BMP180;23057;48.554;14.454;2023-07-29T09:55:34;93513.00;;;30.20
41940;BMP180;23057;48.554;14.454;2023-07-29T09:58:05;93517.00;;;30.30
41940;BMP180;23057;48.554;14.454;2023-07-29T10:00:38;93519.00;;;30.30
41940;BMP180;23057;48.554;14.454;2023-07-29T10:03:11;93519.00;;;30.20
41940;BMP180;23057;48.554;14.454;2023-07-29T10:05:45;93527.00;;;30.10
41940;BMP180;23057;48.554;14.454;2023-07-29T10:08:17;93528.00;;;29.90
41940;BMP180;23057;48.554;14.454;2023-07-29T10:10:50;93525.00;;;29.70
41940;BMP180;23057;48.554;14.454;2023-07-29T10:13:25;93528.00;;;29.60
41940;BMP180;23057;48.554;14.454;2023-07-29T10:15:57;93539.00;;;29.60
41940;BMP180;23057;48.554;14.454;2023-07-29T10:18:29;93527.00;;;29.50
41940;BMP180;23057;48.554;14.454;2023-07-29T10:21:02;93544.00;;;29.40
41940;BMP180;23057;48.554;14.454;2023-07-29T10:23:47;93544.00;;;29.10
41940;BMP180;23057;48.554;14.454;2023-07-29T10:26:21;93547.00;;;29.00
41940;BMP180;23057;48.554;14.454;2023-07-29T10:28:57;93545.00;;;28.90
41940;BMP180;23057;48.554;14.454;2023-07-29T10:31:36;93544.00;;;28.80
41940;BMP180;23057;48.554;14.454;2023-07-29T10:34:12;93549.00;;;28.70
41940;BMP180;23057;48.554;14.454;2023-07-29T10:36:45;93554.00;;;28.60
41940;BMP180;23057;48.554;14.454;2023-07-29T10:39:17;93558.00;;;28.50
41940;BMP180;23057;48.554;14.454;2023-07-29T10:42:02;93557.00;;;28.50
41940;BMP180;23057;48.554;14.454;2023-07-29T10:44:54;93563.00;;;28.30
41940;BMP180;23057;48.554;14.454;2023-07-29T10:47:27;93565.00;;;28.10
41940;BMP180;23057;48.554;14.454;2023-07-29T10:50:18;93563.00;;;27.90
41940;BMP180;23057;48.554;14.454;2023-07-29T10:52:52;93559.00;;;27.80
41940;BMP180;23057;48.554;14.454;2023-07-29T10:55:27;93543.00;;;27.50
41940;BMP180;23057;48.554;14.454;2023-07-29T10:58:15;93544.00;;;27.40
41940;BMP180;23057;48.554;14.454;2023-07-29T11:00:49;93535.00;;;27.30
41940;BMP180;23057;48.554;14.454;2023-07-29T11:03:20;93530.00;;;27.30
41940;BMP180;23057;48.554;14.454;2023-07-29T11:05:53;93535.00;;;27.30
41940;BMP180;23057;48.554;14.454;2023-07-29T11:08:30;93529.00;;;27.30
41940;BMP180;23057;48.554;14.454;2023-07-29T11:11:11;93533.00;;;27.20
41940;BMP180;23057;48.554;14.454;2023-07-29T11:13:44;93535.00;;;27.20
41940;BMP180;23057;48.554;14.454;2023-07-29T11:16:16;93529.00;;;27.20
41940;BMP180;23057;48.554;14.454;2023-07-29T11:18:48;93539.00;;;27.20
41940;BMP180;23057;48.554;14.454;2023-07-29T11:21:19;93538.00;;;27.20
41940;BMP180;23057;48.554;14.454;2023-07-29T11:23:53;93539.00;;;27.20
41940;BMP180;23057;48.554;14.454;2023-07-29T11:26:24;93536.00;;;27.20
41940;BMP180;23057;48.554;14.454;2023-07-29T11:28:55;93536.00;;;27.20
41940;BMP180;23057;48.554;14.454;2023-07-29T11:31:39;93530.00;;;27.20
41940;BMP180;23057;48.554;14.454;2023-07-29T11:34:11;93527.00;;;27.10
41940;BMP180;23057;48.554;14.454;2023-07-29T11:36:46;93529.00;;;27.10
41940;BMP180;23057;48.554;14.454;2023-07-29T11:39:16;93526.00;;;27.10
41940;BMP180;23057;48.554;14.454;2023-07-29T11:41:47;93519.00;;;27.10
41940;BMP180;23057;48.554;14.454;2023-07-29T11:44:18;93521.00;;;27.20
41940;BMP180;23057;48.554;14.454;2023-07-29T11:46:49;93509.00;;;27.30
41940;BMP180;23057;48.554;14.454;2023-07-29T11:49:20;93508.00;;;27.40
41940;BMP180;23057;48.554;14.454;2023-07-29T11:51:51;93508.00;;;27.50
41940;BMP180;23057;48.554;14.454;2023-07-29T11:54:23;93514.00;;;27.60
41940;BMP180;23057;48.554;14.454;2023-07-29T11:56:56;93495.00;;;27.70
41940;BMP180;23057;48.554;14.454;2023-07-29T11:59:27;93509.00;;;27.80
41940;BMP180;23057;48.554;14.454;2023-07-29T12:02:02;93501.00;;;27.90
41940;BMP180;23057;48.554;14.454;2023-07-29T12:04:39;93501.00;;;28.10
41940;BMP180;23057;48.554;14.454;2023-07-29T12:07:13;93499.00;;;28.10
41940;BMP180;23057;48.554;14.454;2023-07-29T12:09:46;93492.00;;;28.10
41940;BMP180;23057;48.554;14.454;2023-07-29T12:12:18;93486.00;;;28.20
41940;BMP180;23057;48.554;14.454;2023-07-29T12:14:49;93487.00;;;28.30
41940;BMP180;23057;48.554;14.454;2023-07-29T12:17:20;93488.00;;;28.40
41940;BMP180;23057;48.554;14.454;2023-07-29T12:19:54;93470.00;;;28.50
41940;BMP180;23057;48.554;14.454;2023-07-29T12:22:25;93472.00;;;28.60
41940;BMP180;23057;48.554;14.454;2023-07-29T12:24:56;93475.00;;;28.70
41940;BMP180;23057;48.554;14.454;2023-07-29T12:27:30;93474.00;;;28.90
41940;BMP180;23057;48.554;14.454;2023-07-29T12:30:02;93472.00;;;29.00
41940;BMP180;23057;48.554;14.454;2023-07-29T12:32:44;93468.00;;;29.10
41940;BMP180;23057;48.554;14.454;2023-07-29T12:35:16;93473.00;;;29.20
41940;BMP180;23057;48.554;14.454;2023-07-29T12:37:57;93473.00;;;29.40
41940;BMP180;23057;48.554;14.454;2023-07-29T12:40:29;93465.00;;;29.50
41940;BMP180;23057;48.554;14.454;2023-07-29T12:43:00;93463.00;;;29.60
41940;BMP180;23057;48.554;14.454;2023-07-29T12:45:36;93466.00;;;29.70
41940;BMP180;23057;48.554;14.454;2023-07-29T12:48:10;93461.00;;;29.80
41940;BMP180;23057;48.554;14.454;2023-07-29T12:50:41;93456.00;;;30.00
41940;BMP180;23057;48.554;14.454;2023-07-29T12:53:12;93450.00;;;30.10
41940;BMP180;23057;48.554;14.454;2023-07-29T12:55:43;93438.00;;;30.20
41940;BMP180;23057;48.554;14.454;2023-07-29T12:58:14;93441.00;;;30.40
41940;BMP180;23057;48.554;14.454;2023-07-29T13:00:44;93440.00;;;30.60
41940;BMP180;23057;48.554;14.454;2023-07-29T13:03:15;93434.00;;;30.70
41940;BMP180;23057;48.554;14.454;2023-07-29T13:05:46;93437.00;;;30.70
41940;BMP180;23057;48.554;14.454;2023-07-29T13:08:17;93442.00;;;30.60
41940;BMP180;23057;48.554;14.454;2023-07-29T13:10:48;93439.00;;;30.60
41940;BMP180;23057;48.554;14.454;2023-07-29T13:13:19;93441.00;;;30.60
41940;BMP180;23057;48.554;14.454;2023-07-29T13:15:51;93445.00;;;30.60
41940;BMP180;23057;48.554;14.454;2023-07-29T13:18:23;93447.00;;;30.60
41940;BMP180;23057;48.554;14.454;2023-07-29T13:20:54;93439.00;;;30.60
41940;BMP180;23057;48.554;14.454;2023-07-29T13:23:26;93443.00;;;30.60
41940;BMP180;23057;48.554;14.454;2023-07-29T13:25:58;93446.00;;;30.60
41940;BMP180;23057;48.554;14.454;2023-07-29T13:28:29;93453.00;;;30.50
41940;BMP180;23057;48.554;14.454;2023-07-29T13:31:01;93451.00;;;30.50
41940;BMP180;23057;48.554;14.454;2023-07-29T13:33:32;93462.00;;;30.50
41940;BMP180;23057;48.554;14.454;2023-07-29T13:36:05;93459.00;;;30.40
41940;BMP180;23057;48.554;14.454;2023-07-29T13:38:36;93460.00;;;30.30
41940;BMP180;23057;48.554;14.454;2023-07-29T13:41:06;93463.00;;;30.30
41940;BMP180;23057;48.554;14.454;2023-07-29T13:43:37;93465.00;;;30.10
41940;BMP180;23057;48.554;14.454;2023-07-29T13:46:08;93463.00;;;30.00
41940;BMP180;23057;48.554;14.454;2023-07-29T13:48:39;93473.00;;;29.80
41940;BMP180;23057;48.554;14.454;2023-07-29T13:51:09;93469.00;;;29.70
41940;BMP180;23057;48.554;14.454;2023-07-29T13:53:40;93469.00;;;29.50
41940;BMP180;23057;48.554;14.454;2023-07-29T13:56:11;93470.00;;;29.30
41940;BMP180;23057;48.554;14.454;2023-07-29T13:58:42;93466.00;;;29.20
41940;BMP180;23057;48.554;14.454;2023-07-29T14:01:13;93478.00;;;29.10
41940;BMP180;23057;48.554;14.454;2023-07-29T14:03:43;93482.00;;;29.00
41940;BMP180;23057;48.554;14.454;2023-07-29T14:06:14;93493.00;;;28.90
41940;BMP180;23057;48.554;14.454;2023-07-29T14:08:45;93477.00;;;28.80
41940;BMP180;23057;48.554;14.454;2023-07-29T14:11:16;93477.00;;;28.80
41940;BMP180;23057;48.554;14.454;2023-07-29T14:13:46;93476.00;;;28.80
41940;BMP180;23057;48.554;14.454;2023-07-29T14:16:17;93471.00;;;28.80
41940;BMP180;23057;48.554;14.454;2023-07-29T14:18:48;93465.00;;;28.80
41940;BMP180;23057;48.554;14.454;2023-07-29T14:21:19;93451.00;;;28.80
41940;BMP180;23057;48.554;14.454;2023-07-29T14:23:49;93448.00;;;28.90
41940;BMP180;23057;48.554;14.454;2023-07-29T14:26:20;93454.00;;;29.00
41940;BMP180;23057;48.554;14.454;2023-07-29T14:28:51;93448.00;;;29.20
41940;BMP180;23057;48.554;14.454;2023-07-29T14:31:22;93437.00;;;29.40